sensor_id;sensor_type;location;lat;lon;timestamp;pressure;altitude;pressure_sealevel;temperature;humidity
62800;BME280;48842;51.046;13.796;2023-02-20T00:01:55;101097.09;;;7.29;58.68
62800;BME280;48842;51.046;13.796;2023-02-20T00:04:20;101105.00;;;7.32;58.73
62800;BME280;48842;51.046;13.796;2023-02-20T00:06:46;101111.19;;;7.36;58.60
62800;BME280;48842;51.046;13.796;2023-02-20T00:09:12;101109.53;;;7.38;58.66
62800;BME280;48842;51.046;13.796;2023-02-20T00:11:37;101113.91;;;7.40;58.24
62800;BME280;48842;51.046;13.796;2023-02-20T00:14:02;101110.47;;;7.41;58.57
62800;BME280;48842;51.046;13.796;2023-02-20T00:16:28;101101.84;;;7.42;58.39
62800;BME280;48842;51.046;13.796;2023-02-20T00:18:53;101114.94;;;7.45;58.39
62800;BME280;48842;51.046;13.796;2023-02-20T00:21:18;101105.41;;;7.46;58.20
62800;BME280;48842;51.046;13.796;2023-02-20T00:23:44;101104.59;;;7.48;58.44
62800;BME280;48842;51.046;13.796;2023-02-20T00:26:10;101100.34;;;7.50;58.47
62800;BME280;48842;51.046;13.796;2023-02-20T00:28:40;101100.34;;;7.50;58.11
62800;BME280;48842;51.046;13.796;2023-02-20T00:31:06;101087.31;;;7.50;58.10
62800;BME280;48842;51.046;13.796;2023-02-20T00:33:32;101092.44;;;7.49;58.04
62800;BME280;48842;51.046;13.796;2023-02-20T00:35:58;101082.94;;;7.49;58.21
62800;BME280;48842;51.046;13.796;2023-02-20T00:38:23;101072.53;;;7.51;57.92
62800;BME280;48842;51.046;13.796;2023-02-20T00:40:48;101072.53;;;7.51;57.79
62800;BME280;48842;51.046;13.796;2023-02-20T00:43:14;101079.50;;;7.50;57.97
62800;BME280;48842;51.046;13.796;2023-02-20T00:45:39;101075.16;;;7.51;58.33
62800;BME280;48842;51.046;13.796;2023-02-20T00:48:05;101076.09;;;7.55;58.14
62800;BME280;48842;51.046;13.796;2023-02-20T00:50:30;101070.94;;;7.56;58.10
62800;BME280;48842;51.046;13.796;2023-02-20T00:52:55;101078.75;;;7.56;58.40
62800;BME280;48842;51.046;13.796;2023-02-20T00:55:20;101073.56;;;7.58;58.07
62800;BME280;48842;51.046;13.796;2023-02-20T00:57:46;101070.13;;;7.59;58.19
62800;BME280;48842;51.046;13.796;2023-02-20T01:00:29;101070.13;;;7.59;58.10
62800;BME280;48842;51.046;13.796;2023-02-20T01:02:54;101067.53;;;7.59;58.20
62800;BME280;48842;51.046;13.796;2023-02-20T01:05:20;101071.97;;;7.61;58.56
62800;BME280;48842;51.046;13.796;2023-02-20T01:07:45;101059.03;;;7.66;58.35
62800;BME280;48842;51.046;13.796;2023-02-20T01:10:12;101053.91;;;7.69;58.27
62800;BME280;48842;51.046;13.796;2023-02-20T01:12:38;101054.84;;;7.71;58.51
62800;BME280;48842;51.046;13.796;2023-02-20T01:15:06;101053.19;;;7.75;58.54
62800;BME280;48842;51.046;13.796;2023-02-20T01:17:31;101059.31;;;7.77;58.58
62800;BME280;48842;51.046;13.796;2023-02-20T01:19:57;101068.94;;;7.78;58.38
62800;BME280;48842;51.046;13.796;2023-02-20T01:22:22;101055.09;;;7.80;58.16
62800;BME280;48842;51.046;13.796;2023-02-20T01:24:47;101056.00;;;7.82;58.49
62800;BME280;48842;51.046;13.796;2023-02-20T01:27:13;101049.13;;;7.84;58.25
62800;BME280;48842;51.046;13.796;2023-02-20T01:29:38;101048.19;;;7.82;58.32
62800;BME280;48842;51.046;13.796;2023-02-20T01:32:03;101044.69;;;7.82;58.12
62800;BME280;48842;51.046;13.796;2023-02-20T01:34:29;101042.06;;;7.80;58.22
62800;BME280;48842;51.046;13.796;2023-02-20T01:36:54;101033.31;;;7.78;58.57
62800;BME280;48842;51.046;13.796;2023-02-20T01:39:27;101027.19;;;7.78;58.19
62800;BME280;48842;51.046;13.796;2023-02-20T01:41:55;101029.84;;;7.79;58.57
62800;BME280;48842;51.046;13.796;2023-02-20T01:44:25;101028.19;;;7.81;58.74
62800;BME280;48842;51.046;13.796;2023-02-20T01:46:55;101027.34;;;7.84;58.21
62800;BME280;48842;51.046;13.796;2023-02-20T01:49:48;101017.75;;;7.81;58.28
62800;BME280;48842;51.046;13.796;2023-02-20T01:52:16;101021.22;;;7.82;58.47
62800;BME280;48842;51.046;13.796;2023-02-20T01:54:46;101017.75;;;7.81;58.36
62800;BME280;48842;51.046;13.796;2023-02-20T01:57:18;101009.00;;;7.81;58.35
62800;BME280;48842;51.046;13.796;2023-02-20T01:59:46;101015.09;;;7.80;58.54
62800;BME280;48842;51.046;13.796;2023-02-20T02:02:13;101004.66;;;7.80;58.49
62800;BME280;48842;51.046;13.796;2023-02-20T02:04:40;101010.75;;;7.80;58.57
62800;BME280;48842;51.046;13.796;2023-02-20T02:07:06;100999.44;;;7.80;58.95
62800;BME280;48842;51.046;13.796;2023-02-20T02:09:50;101000.31;;;7.80;58.86
62800;BME280;48842;51.046;13.796;2023-02-20T02:12:17;100997.75;;;7.82;58.79
62800;BME280;48842;51.046;13.796;2023-02-20T02:14:42;100996.97;;;7.84;58.88
62800;BME280;48842;51.046;13.796;2023-02-20T02:17:31;100996.97;;;7.84;58.97
62800;BME280;48842;51.046;13.796;2023-02-20T02:28:42;100993.75;;;7.95;59.01
62800;BME280;48842;51.046;13.796;2023-02-20T02:31:34;100992.94;;;7.97;58.97
62800;BME280;48842;51.046;13.796;2023-02-20T02:34:42;100991.19;;;7.98;58.85
62800;BME280;48842;51.046;13.796;2023-02-20T02:43:06;100983.34;;;7.96;59.10
62800;BME280;48842;51.046;13.796;2023-02-20T02:45:37;100985.16;;;7.99;59.03
62800;BME280;48842;51.046;13.796;2023-02-20T02:48:21;100985.16;;;7.99;59.29
62800;BME280;48842;51.046;13.796;2023-02-20T02:50:53;100985.22;;;8.02;59.12
62800;BME280;48842;51.046;13.796;2023-02-20T02:53:20;100977.38;;;8.00;59.34
62800;BME280;48842;51.046;13.796;2023-02-20T02:55:45;100965.16;;;7.99;59.63
62800;BME280;48842;51.046;13.796;2023-02-20T02:58:12;100965.13;;;7.98;59.23
62800;BME280;48842;51.046;13.796;2023-02-20T03:00:52;100956.47;;;7.99;59.41
62800;BME280;48842;51.046;13.796;2023-02-20T03:03:28;100949.53;;;8.01;59.76
62800;BME280;48842;51.046;13.796;2023-02-20T03:06:11;100944.31;;;8.01;59.51
62800;BME280;48842;51.046;13.796;2023-02-20T03:09:02;100946.91;;;7.99;59.86
62800;BME280;48842;51.046;13.796;2023-02-20T03:11:31;100944.28;;;7.99;59.62
62800;BME280;48842;51.046;13.796;2023-02-20T03:14:07;100935.63;;;8.00;59.69
62800;BME280;48842;51.046;13.796;2023-02-20T03:17:22;100937.41;;;8.03;59.45
62800;BME280;48842;51.046;13.796;2023-02-20T03:19:50;100931.28;;;8.01;60.07
62800;BME280;48842;51.046;13.796;2023-02-20T03:22:26;100929.53;;;8.01;60.27
62800;BME280;48842;51.046;13.796;2023-02-20T03:24:55;100926.13;;;8.04;60.13
62800;BME280;48842;51.046;13.796;2023-02-20T03:27:32;100935.78;;;8.08;60.37
62800;BME280;48842;51.046;13.796;2023-02-20T03:30:05;100925.41;;;8.10;60.36
62800;BME280;48842;51.046;13.796;2023-02-20T03:32:31;100920.19;;;8.10;60.24
62800;BME280;48842;51.046;13.796;2023-02-20T03:35:17;100917.59;;;8.11;60.44
62800;BME280;48842;51.046;13.796;2023-02-20T03:38:04;100915.88;;;8.12;60.30
62800;BME280;48842;51.046;13.796;2023-02-20T03:40:50;100921.22;;;8.16;60.29
62800;BME280;48842;51.046;13.796;2023-02-20T03:43:35;100920.38;;;8.19;60.83
62800;BME280;48842;51.046;13.796;2023-02-20T03:46:05;100916.88;;;8.17;62.87
62800;BME280;48842;51.046;13.796;2023-02-20T03:48:57;100909.13;;;8.21;63.19
62800;BME280;48842;51.046;13.796;2023-02-20T03:51:24;100917.03;;;8.25;62.73
62800;BME280;48842;51.046;13.796;2023-02-20T03:53:51;100919.75;;;8.29;62.81
62800;BME280;48842;51.046;13.796;2023-02-20T03:56:21;100915.53;;;8.34;63.06
62800;BME280;48842;51.046;13.796;2023-02-20T03:58:56;100922.53;;;8.37;63.46
62800;BME280;48842;51.046;13.796;2023-02-20T04:01:25;100923.50;;;8.42;63.24
62800;BME280;48842;51.046;13.796;2023-02-20T04:03:53;100921.91;;;8.46;63.05
62800;BME280;48842;51.046;13.796;2023-02-20T04:06:21;100923.69;;;8.48;63.34
62800;BME280;48842;51.046;13.796;2023-02-20T04:08:57;100923.78;;;8.51;63.25
62800;BME280;48842;51.046;13.796;2023-02-20T04:11:28;100913.38;;;8.54;63.30
62800;BME280;48842;51.046;13.796;2023-02-20T04:13:55;100901.28;;;8.60;63.22
62800;BME280;48842;51.046;13.796;2023-02-20T04:16:22;100899.69;;;8.65;63.18
62800;BME280;48842;51.046;13.796;2023-02-20T04:18:48;100893.59;;;8.66;63.17
62800;BME280;48842;51.046;13.796;2023-02-20T04:21:22;100884.06;;;8.68;63.21
62800;BME280;48842;51.046;13.796;2023-02-20T04:23:58;100887.59;;;8.70;62.90
62800;BME280;48842;51.046;13.796;2023-02-20T04:26:26;100894.50;;;8.68;63.45
62800;BME280;48842;51.046;13.796;2023-02-20T04:28:52;100883.19;;;8.67;63.44
62800;BME280;48842;51.046;13.796;2023-02-20T04:31:19;100877.97;;;8.67;63.59
62800;BME280;48842;51.046;13.796;2023-02-20T04:33:45;100882.31;;;8.68;63.63
62800;BME280;48842;51.046;13.796;2023-02-20T04:36:10;100879.78;;;8.71;63.67
62800;BME280;48842;51.046;13.796;2023-02-20T04:38:36;100874.59;;;8.73;63.56
62800;BME280;48842;51.046;13.796;2023-02-20T04:41:01;100873.81;;;8.77;63.46
62800;BME280;48842;51.046;13.796;2023-02-20T04:43:26;100877.34;;;8.79;63.53
62800;BME280;48842;51.046;13.796;2023-02-20T04:45:52;100885.19;;;8.79;63.67
62800;BME280;48842;51.046;13.796;2023-02-20T04:48:17;100888.66;;;8.80;63.73
62800;BME280;48842;51.046;13.796;2023-02-20T04:50:42;100891.31;;;8.81;63.80
62800;BME280;48842;51.046;13.796;2023-02-20T04:53:07;100888.75;;;8.84;64.01
62800;BME280;48842;51.046;13.796;2023-02-20T04:55:33;100888.72;;;8.83;63.84
62800;BME280;48842;51.046;13.796;2023-02-20T04:57:59;100891.31;;;8.81;64.18
62800;BME280;48842;51.046;13.796;2023-02-20T05:00:25;100889.59;;;8.83;64.13
62800;BME280;48842;51.046;13.796;2023-02-20T05:02:51;100880.03;;;8.84;64.36
62800;BME280;48842;51.046;13.796;2023-02-20T05:05:27;100879.22;;;8.86;64.09
62800;BME280;48842;51.046;13.796;2023-02-20T05:07:58;100863.59;;;8.89;64.17
62800;BME280;48842;51.046;13.796;2023-02-20T05:10:25;100872.34;;;8.91;64.24
62800;BME280;48842;51.046;13.796;2023-02-20T05:12:51;100866.22;;;8.89;64.66
62800;BME280;48842;51.046;13.796;2023-02-20T05:15:17;100869.78;;;8.95;64.33
62800;BME280;48842;51.046;13.796;2023-02-20T05:17:42;100863.78;;;8.99;64.23
62800;BME280;48842;51.046;13.796;2023-02-20T05:20:08;100861.19;;;9.00;64.17
62800;BME280;48842;51.046;13.796;2023-02-20T05:22:34;100854.22;;;9.01;64.35
62800;BME280;48842;51.046;13.796;2023-02-20T05:24:59;100854.31;;;9.04;63.88
62800;BME280;48842;51.046;13.796;2023-02-20T05:27:25;100846.38;;;9.01;64.82
62800;BME280;48842;51.046;13.796;2023-02-20T05:29:53;100849.91;;;9.03;64.51
62800;BME280;48842;51.046;13.796;2023-02-20T05:32:21;100844.69;;;9.03;64.74
62800;BME280;48842;51.046;13.796;2023-02-20T05:34:47;100832.56;;;9.08;64.74
62800;BME280;48842;51.046;13.796;2023-02-20T05:37:15;100820.53;;;9.16;64.61
62800;BME280;48842;51.046;13.796;2023-02-20T05:39:41;100809.09;;;9.11;63.97
62800;BME280;48842;51.046;13.796;2023-02-20T05:42:07;100803.72;;;9.02;63.71
62800;BME280;48842;51.046;13.796;2023-02-20T05:44:33;100802.06;;;9.05;63.65
62800;BME280;48842;51.046;13.796;2023-02-20T05:46:58;100794.31;;;9.10;63.61
62800;BME280;48842;51.046;13.796;2023-02-20T05:49:24;100804.78;;;9.12;63.50
62800;BME280;48842;51.046;13.796;2023-02-20T05:51:50;100806.41;;;9.06;63.34
62800;BME280;48842;51.046;13.796;2023-02-20T05:54:17;100807.41;;;9.12;63.29
62800;BME280;48842;51.046;13.796;2023-02-20T05:56:44;100813.50;;;9.12;63.23
62800;BME280;48842;51.046;13.796;2023-02-20T05:59:10;100798.63;;;9.09;63.21
62800;BME280;48842;51.046;13.796;2023-02-20T06:01:35;100813.34;;;9.03;63.47
62800;BME280;48842;51.046;13.796;2023-02-20T06:04:01;100809.88;;;9.04;63.30
62800;BME280;48842;51.046;13.796;2023-02-20T06:06:35;100805.56;;;9.07;63.15
62800;BME280;48842;51.046;13.796;2023-02-20T06:09:01;100814.22;;;9.03;63.14
62800;BME280;48842;51.046;13.796;2023-02-20T06:11:26;100816.69;;;8.96;63.50
62800;BME280;48842;51.046;13.796;2023-02-20T06:13:52;100814.88;;;8.91;63.04
62800;BME280;48842;51.046;13.796;2023-02-20T06:16:25;100818.41;;;8.94;63.39
62800;BME280;48842;51.046;13.796;2023-02-20T06:18:51;100817.59;;;8.98;63.04
62800;BME280;48842;51.046;13.796;2023-02-20T06:21:17;100824.63;;;9.02;62.79
62800;BME280;48842;51.046;13.796;2023-02-20T06:23:43;100810.81;;;9.07;62.53
62800;BME280;48842;51.046;13.796;2023-02-20T06:26:12;100817.78;;;9.07;62.50
62800;BME280;48842;51.046;13.796;2023-02-20T06:28:38;100812.59;;;9.10;62.53
62800;BME280;48842;51.046;13.796;2023-02-20T06:31:04;100801.34;;;9.14;62.55
62800;BME280;48842;51.046;13.796;2023-02-20T06:33:30;100794.44;;;9.19;62.34
62800;BME280;48842;51.046;13.796;2023-02-20T06:35:56;100798.94;;;9.26;62.15
62800;BME280;48842;51.046;13.796;2023-02-20T06:38:21;100813.81;;;9.31;62.06
62800;BME280;48842;51.046;13.796;2023-02-20T06:40:46;100802.59;;;9.36;61.80
62800;BME280;48842;51.046;13.796;2023-02-20T06:43:12;100816.59;;;9.41;61.67
62800;BME280;48842;51.046;13.796;2023-02-20T06:45:37;100787.88;;;9.44;61.49
62800;BME280;48842;51.046;13.796;2023-02-20T06:48:03;100789.63;;;9.44;61.07
62800;BME280;48842;51.046;13.796;2023-02-20T06:50:28;100799.22;;;9.43;61.16
62800;BME280;48842;51.046;13.796;2023-02-20T06:52:53;100805.41;;;9.50;60.78
62800;BME280;48842;51.046;13.796;2023-02-20T06:55:19;100795.06;;;9.56;61.24
62800;BME280;48842;51.046;13.796;2023-02-20T06:57:44;100793.34;;;9.58;60.71
62800;BME280;48842;51.046;13.796;2023-02-20T07:00:10;100799.38;;;9.54;59.60
62800;BME280;48842;51.046;13.796;2023-02-20T07:02:35;100799.44;;;9.59;60.14
62800;BME280;48842;51.046;13.796;2023-02-20T07:05:02;100801.22;;;9.61;59.80
62800;BME280;48842;51.046;13.796;2023-02-20T07:07:27;100795.06;;;9.56;59.31
62800;BME280;48842;51.046;13.796;2023-02-20T07:09:52;100790.75;;;9.60;59.21
62800;BME280;48842;51.046;13.796;2023-02-20T07:12:18;100784.69;;;9.63;59.08
62800;BME280;48842;51.046;13.796;2023-02-20T07:14:43;100789.97;;;9.66;58.68
62800;BME280;48842;51.046;13.796;2023-02-20T07:17:08;100789.97;;;9.67;58.12
62800;BME280;48842;51.046;13.796;2023-02-20T07:19:33;100781.16;;;9.60;56.94
62800;BME280;48842;51.046;13.796;2023-02-20T07:21:58;100782.06;;;9.63;56.96
62800;BME280;48842;51.046;13.796;2023-02-20T07:24:24;100770.88;;;9.71;56.82
62800;BME280;48842;51.046;13.796;2023-02-20T07:26:49;100767.44;;;9.74;56.17
62800;BME280;48842;51.046;13.796;2023-02-20T07:29:14;100760.44;;;9.74;55.62
62800;BME280;48842;51.046;13.796;2023-02-20T07:31:40;100772.66;;;9.74;55.38
62800;BME280;48842;51.046;13.796;2023-02-20T07:34:05;100769.25;;;9.81;55.59
62800;BME280;48842;51.046;13.796;2023-02-20T07:36:30;100758.91;;;9.90;55.33
62800;BME280;48842;51.046;13.796;2023-02-20T07:38:58;100756.34;;;9.93;54.45
62800;BME280;48842;51.046;13.796;2023-02-20T07:41:25;100750.28;;;9.96;53.80
62800;BME280;48842;51.046;13.796;2023-02-20T07:43:53;100757.28;;;10.00;54.08
62800;BME280;48842;51.046;13.796;2023-02-20T07:46:18;100752.13;;;10.05;54.04
62800;BME280;48842;51.046;13.796;2023-02-20T07:48:43;100761.72;;;10.06;53.42
62800;BME280;48842;51.046;13.796;2023-02-20T07:51:09;100750.44;;;10.10;52.83
62800;BME280;48842;51.046;13.796;2023-02-20T07:53:34;100752.19;;;10.09;51.81
62800;BME280;48842;51.046;13.796;2023-02-20T07:55:59;100737.44;;;10.18;52.13
62800;BME280;48842;51.046;13.796;2023-02-20T07:58:24;100733.97;;;10.20;52.02
62800;BME280;48842;51.046;13.796;2023-02-20T08:00:50;100743.59;;;10.21;51.30
62800;BME280;48842;51.046;13.796;2023-02-20T08:03:17;100744.53;;;10.26;51.06
62800;BME280;48842;51.046;13.796;2023-02-20T08:05:43;100742.84;;;10.31;51.22
62800;BME280;48842;51.046;13.796;2023-02-20T08:08:14;100750.81;;;10.38;51.09
62800;BME280;48842;51.046;13.796;2023-02-20T08:10:39;100741.28;;;10.43;51.36
62800;BME280;48842;51.046;13.796;2023-02-20T08:13:04;100737.72;;;10.39;50.77
62800;BME280;48842;51.046;13.796;2023-02-20T08:15:30;100698.47;;;10.44;51.02
62800;BME280;48842;51.046;13.796;2023-02-20T08:17:55;100703.69;;;10.41;50.49
62800;BME280;48842;51.046;13.796;2023-02-20T08:20:21;100693.19;;;10.36;49.86
62800;BME280;48842;51.046;13.796;2023-02-20T08:22:48;100689.75;;;10.42;49.94
62800;BME280;48842;51.046;13.796;2023-02-20T08:25:15;100698.59;;;10.53;50.37
62800;BME280;48842;51.046;13.796;2023-02-20T08:27:43;100718.72;;;10.57;49.16
62800;BME280;48842;51.046;13.796;2023-02-20T08:30:12;100717.06;;;10.67;49.86
62800;BME280;48842;51.046;13.796;2023-02-20T08:32:38;100706.69;;;10.76;50.05
62800;BME280;48842;51.046;13.796;2023-02-20T08:35:03;100691.88;;;10.83;50.14
62800;BME280;48842;51.046;13.796;2023-02-20T08:37:29;100711.16;;;10.90;50.18
62800;BME280;48842;51.046;13.796;2023-02-20T08:39:54;100689.34;;;10.92;49.36
62800;BME280;48842;51.046;13.796;2023-02-20T08:42:19;100686.81;;;11.05;49.40
62800;BME280;48842;51.046;13.796;2023-02-20T08:44:44;100667.66;;;11.18;49.11
62800;BME280;48842;51.046;13.796;2023-02-20T08:47:10;100645.03;;;11.28;49.14
62800;BME280;48842;51.046;13.796;2023-02-20T08:49:35;100682.69;;;11.38;48.91
62800;BME280;48842;51.046;13.796;2023-02-20T08:52:00;100684.38;;;11.32;47.90
62800;BME280;48842;51.046;13.796;2023-02-20T08:54:29;100681.75;;;11.29;47.97
62800;BME280;48842;51.046;13.796;2023-02-20T08:56:54;100674.81;;;11.38;48.58
62800;BME280;48842;51.046;13.796;2023-02-20T08:59:19;100663.50;;;11.45;48.82
62800;BME280;48842;51.046;13.796;2023-02-20T09:01:45;100654.78;;;11.55;48.55
62800;BME280;48842;51.046;13.796;2023-02-20T09:04:10;100634.69;;;11.63;48.95
62800;BME280;48842;51.046;13.796;2023-02-20T09:06:36;100641.72;;;11.70;48.84
62800;BME280;48842;51.046;13.796;2023-02-20T09:09:02;100654.81;;;11.61;47.08
62800;BME280;48842;51.046;13.796;2023-02-20T09:11:27;100639.94;;;11.62;47.01
62800;BME280;48842;51.046;13.796;2023-02-20T09:13:52;100641.72;;;11.67;46.83
62800;BME280;48842;51.046;13.796;2023-02-20T09:16:20;100632.06;;;11.59;46.69
62800;BME280;48842;51.046;13.796;2023-02-20T09:18:46;100638.25;;;11.72;46.79
62800;BME280;48842;51.046;13.796;2023-02-20T09:21:13;100638.28;;;11.85;47.24
62800;BME280;48842;51.046;13.796;2023-02-20T09:23:39;100619.91;;;11.84;46.90
62800;BME280;48842;51.046;13.796;2023-02-20T09:26:04;100628.69;;;11.89;47.50
62800;BME280;48842;51.046;13.796;2023-02-20T09:28:30;100619.94;;;11.90;47.34
62800;BME280;48842;51.046;13.796;2023-02-20T09:30:55;100607.75;;;12.06;47.32
62800;BME280;48842;51.046;13.796;2023-02-20T09:33:22;100598.13;;;12.07;46.91
62800;BME280;48842;51.046;13.796;2023-02-20T09:35:48;100586.72;;;12.04;46.59
62800;BME280;48842;51.046;13.796;2023-02-20T09:38:14;100612.94;;;11.89;46.77
62800;BME280;48842;51.046;13.796;2023-02-20T09:40:39;100599.84;;;11.97;46.68
62800;BME280;48842;51.046;13.796;2023-02-20T09:43:22;100603.38;;;12.10;46.97
62800;BME280;48842;51.046;13.796;2023-02-20T09:46:07;100598.13;;;12.16;46.67
62800;BME280;48842;51.046;13.796;2023-02-20T09:51:23;100583.28;;;12.33;47.17
62800;BME280;48842;51.046;13.796;2023-02-20T09:53:55;100583.28;;;12.38;46.27
62800;BME280;48842;51.046;13.796;2023-02-20T09:56:28;100589.44;;;12.38;46.12
62800;BME280;48842;51.046;13.796;2023-02-20T09:59:15;100578.91;;;12.34;46.33
62800;BME280;48842;51.046;13.796;2023-02-20T10:02:10;100592.06;;;12.40;46.27
62800;BME280;48842;51.046;13.796;2023-02-20T10:04:38;100572.78;;;12.49;46.65
62800;BME280;48842;51.046;13.796;2023-02-20T10:07:27;100571.03;;;12.62;46.21
62800;BME280;48842;51.046;13.796;2023-02-20T10:09:54;100570.16;;;12.72;46.59
62800;BME280;48842;51.046;13.796;2023-02-20T10:12:33;100569.25;;;12.71;46.06
62800;BME280;48842;51.046;13.796;2023-02-20T10:15:02;100568.41;;;12.68;45.66
62800;BME280;48842;51.046;13.796;2023-02-20T10:23:24;100571.03;;;12.63;44.79
62800;BME280;48842;51.046;13.796;2023-02-20T10:25:55;100573.66;;;12.69;44.47
62800;BME280;48842;51.046;13.796;2023-02-20T10:28:21;100555.22;;;12.77;44.93
62800;BME280;48842;51.046;13.796;2023-02-20T10:30:59;100553.50;;;12.78;44.60
62800;BME280;48842;51.046;13.796;2023-02-20T10:33:48;100542.94;;;12.87;44.56
62800;BME280;48842;51.046;13.796;2023-02-20T10:36:19;100529.78;;;12.90;44.55
62800;BME280;48842;51.046;13.796;2023-02-20T10:39:10;100551.72;;;12.80;44.01
62800;BME280;48842;51.046;13.796;2023-02-20T10:41:42;100555.22;;;12.83;44.25
62800;BME280;48842;51.046;13.796;2023-02-20T10:49:30;100549.06;;;12.86;44.34
62800;BME280;48842;51.046;13.796;2023-02-20T10:51:59;100533.31;;;12.83;44.47
62800;BME280;48842;51.046;13.796;2023-02-20T10:54:32;100520.16;;;12.86;44.61
62800;BME280;48842;51.046;13.796;2023-02-20T10:57:04;100521.88;;;12.96;44.47
62800;BME280;48842;51.046;13.796;2023-02-20T11:02:18;100508.72;;;13.08;43.28
62800;BME280;48842;51.046;13.796;2023-02-20T11:04:50;100513.88;;;13.27;43.81
62800;BME280;48842;51.046;13.796;2023-02-20T11:07:18;100500.69;;;13.30;43.41
62800;BME280;48842;51.046;13.796;2023-02-20T11:09:43;100509.53;;;13.24;43.29
62800;BME280;48842;51.046;13.796;2023-02-20T11:12:51;100494.63;;;13.22;42.49
62800;BME280;48842;51.046;13.796;2023-02-20T11:15:21;100485.78;;;13.38;42.84
62800;BME280;48842;51.046;13.796;2023-02-20T11:17:50;100479.69;;;13.38;42.71
62800;BME280;48842;51.046;13.796;2023-02-20T11:22:57;100479.69;;;13.35;42.45
62800;BME280;48842;51.046;13.796;2023-02-20T11:25:33;100458.63;;;13.28;42.21
62800;BME280;48842;51.046;13.796;2023-02-20T11:28:09;100455.06;;;13.45;42.63
62800;BME280;48842;51.046;13.796;2023-02-20T11:30:40;100470.84;;;13.50;41.83
62800;BME280;48842;51.046;13.796;2023-02-20T11:33:36;100429.56;;;13.55;42.00
62800;BME280;48842;51.046;13.796;2023-02-20T11:36:33;100428.69;;;13.53;41.81
62800;BME280;48842;51.046;13.796;2023-02-20T11:39:05;100400.59;;;13.55;41.50
62800;BME280;48842;51.046;13.796;2023-02-20T11:41:38;100413.84;;;13.46;41.13
62800;BME280;48842;51.046;13.796;2023-02-20T11:46:35;100368.94;;;13.66;41.52
62800;BME280;48842;51.046;13.796;2023-02-20T11:49:03;100395.19;;;13.76;40.92
62800;BME280;48842;51.046;13.796;2023-02-20T11:54:19;100374.94;;;13.85;40.80
62800;BME280;48842;51.046;13.796;2023-02-20T11:59:50;100358.16;;;13.95;40.27
62800;BME280;48842;51.046;13.796;2023-02-20T12:05:06;100349.19;;;14.11;39.93
62800;BME280;48842;51.046;13.796;2023-02-20T12:07:35;100350.91;;;14.16;40.31
62800;BME280;48842;51.046;13.796;2023-02-20T12:10:18;100319.44;;;14.05;40.12
62800;BME280;48842;51.046;13.796;2023-02-20T12:12:45;100315.09;;;13.99;40.11
62800;BME280;48842;51.046;13.796;2023-02-20T12:15:13;100380.22;;;13.83;40.28
62800;BME280;48842;51.046;13.796;2023-02-20T12:18:01;100322.09;;;13.99;40.12
62800;BME280;48842;51.046;13.796;2023-02-20T12:20:36;100317.56;;;14.13;40.23
62800;BME280;48842;51.046;13.796;2023-02-20T12:23:17;100297.34;;;14.17;40.35
62800;BME280;48842;51.046;13.796;2023-02-20T12:25:58;100309.53;;;14.27;40.38
62800;BME280;48842;51.046;13.796;2023-02-20T12:34:44;100269.84;;;14.39;40.04
62800;BME280;48842;51.046;13.796;2023-02-20T12:37:27;100318.16;;;14.38;40.32
62800;BME280;48842;51.046;13.796;2023-02-20T12:42:52;100269.59;;;14.58;40.25
62800;BME280;48842;51.046;13.796;2023-02-20T12:45:30;100280.09;;;14.61;40.13
62800;BME280;48842;51.046;13.796;2023-02-20T12:48:11;100297.78;;;14.53;40.36
62800;BME280;48842;51.046;13.796;2023-02-20T12:50:47;100294.16;;;14.61;40.45
62800;BME280;48842;51.046;13.796;2023-02-20T12:53:23;100308.28;;;14.56;40.60
62800;BME280;48842;51.046;13.796;2023-02-20T12:56:06;100294.00;;;14.75;40.69
62800;BME280;48842;51.046;13.796;2023-02-20T12:58:46;100298.31;;;14.81;40.22
62800;BME280;48842;51.046;13.796;2023-02-20T13:01:14;100296.63;;;14.77;40.66
62800;BME280;48842;51.046;13.796;2023-02-20T13:06:22;100302.84;;;14.71;40.61
62800;BME280;48842;51.046;13.796;2023-02-20T13:11:42;100274.56;;;14.82;40.58
62800;BME280;48842;51.046;13.796;2023-02-20T13:14:21;100282.59;;;14.73;41.27
62800;BME280;48842;51.046;13.796;2023-02-20T13:17:11;100271.06;;;14.73;41.53
62800;BME280;48842;51.046;13.796;2023-02-20T13:19:48;100268.50;;;14.74;41.84
62800;BME280;48842;51.046;13.796;2023-02-20T13:22:15;100264.00;;;14.82;42.07
62800;BME280;48842;51.046;13.796;2023-02-20T13:24:40;100262.97;;;14.93;42.19
62800;BME280;48842;51.046;13.796;2023-02-20T13:27:07;100279.88;;;14.79;42.24
62800;BME280;48842;51.046;13.796;2023-02-20T13:29:35;100262.59;;;14.55;42.70
62800;BME280;48842;51.046;13.796;2023-02-20T13:32:20;100248.31;;;14.75;42.95
62800;BME280;48842;51.046;13.796;2023-02-20T13:34:46;100252.38;;;14.96;42.88
62800;BME280;48842;51.046;13.796;2023-02-20T13:40:43;100262.31;;;15.33;42.18
62800;BME280;48842;51.046;13.796;2023-02-20T13:45:38;100244.41;;;15.50;41.95
62800;BME280;48842;51.046;13.796;2023-02-20T13:53:46;100248.47;;;15.20;42.65
62800;BME280;48842;51.046;13.796;2023-02-20T13:58:40;100235.09;;;15.31;42.54
62800;BME280;48842;51.046;13.796;2023-02-20T14:01:05;100221.91;;;15.31;42.76
62800;BME280;48842;51.046;13.796;2023-02-20T14:03:33;100228.75;;;15.41;42.70
62800;BME280;48842;51.046;13.796;2023-02-20T14:06:10;100232.03;;;15.54;42.44
62800;BME280;48842;51.046;13.796;2023-02-20T14:08:39;100220.59;;;15.55;42.84
62800;BME280;48842;51.046;13.796;2023-02-20T14:11:31;100230.31;;;15.51;41.96
62800;BME280;48842;51.046;13.796;2023-02-20T14:13:57;100215.88;;;15.73;42.14